sensor_id;sensor_type;location;lat;lon;timestamp;temperature;humidity
26579;DHT22;14227;47.674;19.320;2023-06-19T04:12:10;13.20;74.70
26579;DHT22;14227;47.674;19.320;2023-06-19T04:14:56;13.60;74.60
26579;DHT22;14227;47.674;19.320;2023-06-19T04:17:22;13.80;75.20
26579;DHT22;14227;47.674;19.320;2023-06-19T04:19:47;14.00;75.50
26579;DHT22;14227;47.674;19.320;2023-06-19T04:22:13;14.30;75.70
26579;DHT22;14227;47.674;19.320;2023-06-19T04:24:39;14.50;75.80
26579;DHT22;14227;47.674;19.320;2023-06-19T04:27:04;14.80;75.90
26579;DHT22;14227;47.674;19.320;2023-06-19T04:29:33;15.00;76.00
26579;DHT22;14227;47.674;19.320;2023-06-19T04:31:59;15.30;76.30
26579;DHT22;14227;47.674;19.320;2023-06-19T04:34:25;15.60;76.70
26579;DHT22;14227;47.674;19.320;2023-06-19T04:36:51;15.90;76.90
26579;DHT22;14227;47.674;19.320;2023-06-19T04:39:17;16.30;76.90
26579;DHT22;14227;47.674;19.320;2023-06-19T04:41:44;16.50;76.50
26579;DHT22;14227;47.674;19.320;2023-06-19T04:44:12;16.80;76.10
26579;DHT22;14227;47.674;19.320;2023-06-19T04:46:38;17.10;75.60
26579;DHT22;14227;47.674;19.320;2023-06-19T04:49:05;17.40;74.80
26579;DHT22;14227;47.674;19.320;2023-06-19T04:51:31;17.60;74.20
26579;DHT22;14227;47.674;19.320;2023-06-19T04:54:02;17.70;73.80
26579;DHT22;14227;47.674;19.320;2023-06-19T04:56:28;17.90;73.40
26579;DHT22;14227;47.674;19.320;2023-06-19T04:58:57;18.00;74.00
26579;DHT22;14227;47.674;19.320;2023-06-19T05:01:25;18.10;74.30
26579;DHT22;14227;47.674;19.320;2023-06-19T05:03:56;18.10;73.50
26579;DHT22;14227;47.674;19.320;2023-06-19T05:06:25;18.10;73.10
26579;DHT22;14227;47.674;19.320;2023-06-19T05:08:51;18.20;73.20
26579;DHT22;14227;47.674;19.320;2023-06-19T05:11:17;18.20;72.50
26579;DHT22;14227;47.674;19.320;2023-06-19T05:13:43;18.20;71.40
26579;DHT22;14227;47.674;19.320;2023-06-19T05:16:09;18.30;71.80
26579;DHT22;14227;47.674;19.320;2023-06-19T05:18:35;18.40;72.00
26579;DHT22;14227;47.674;19.320;2023-06-19T05:21:00;18.50;72.70
26579;DHT22;14227;47.674;19.320;2023-06-19T05:23:26;18.70;72.90
26579;DHT22;14227;47.674;19.320;2023-06-19T05:25:51;18.80;72.30
26579;DHT22;14227;47.674;19.320;2023-06-19T05:28:17;18.90;71.80
26579;DHT22;14227;47.674;19.320;2023-06-19T05:30:43;19.10;70.60
26579;DHT22;14227;47.674;19.320;2023-06-19T05:33:08;19.20;69.30
26579;DHT22;14227;47.674;19.320;2023-06-19T05:35:35;19.30;70.40
26579;DHT22;14227;47.674;19.320;2023-06-19T05:38:00;19.50;68.50
26579;DHT22;14227;47.674;19.320;2023-06-19T05:40:26;19.70;67.70
26579;DHT22;14227;47.674;19.320;2023-06-19T05:42:53;19.80;66.10
26579;DHT22;14227;47.674;19.320;2023-06-19T05:45:21;19.90;66.30
26579;DHT22;14227;47.674;19.320;2023-06-19T05:47:46;19.90;65.60
26579;DHT22;14227;47.674;19.320;2023-06-19T05:50:12;20.00;64.50
26579;DHT22;14227;47.674;19.320;2023-06-19T05:52:38;20.10;64.50
26579;DHT22;14227;47.674;19.320;2023-06-19T05:55:08;20.40;66.00
26579;DHT22;14227;47.674;19.320;2023-06-19T05:57:34;20.90;65.60
26579;DHT22;14227;47.674;19.320;2023-06-19T06:00:00;21.60;63.60
26579;DHT22;14227;47.674;19.320;2023-06-19T06:02:25;22.30;60.50
26579;DHT22;14227;47.674;19.320;2023-06-19T06:04:53;23.00;56.70
26579;DHT22;14227;47.674;19.320;2023-06-19T06:07:19;23.50;53.00
26579;DHT22;14227;47.674;19.320;2023-06-19T06:09:45;23.90;50.80
26579;DHT22;14227;47.674;19.320;2023-06-19T06:12:10;24.40;49.00
26579;DHT22;14227;47.674;19.320;2023-06-19T06:14:37;24.60;48.50
26579;DHT22;14227;47.674;19.320;2023-06-19T06:17:02;24.60;46.70
26579;DHT22;14227;47.674;19.320;2023-06-19T06:19:30;24.60;46.30
26579;DHT22;14227;47.674;19.320;2023-06-19T06:21:56;24.50;46.00
26579;DHT22;14227;47.674;19.320;2023-06-19T06:24:22;24.50;45.70
26579;DHT22;14227;47.674;19.320;2023-06-19T06:26:47;24.50;45.50
26579;DHT22;14227;47.674;19.320;2023-06-19T06:29:13;24.50;45.70
26579;DHT22;14227;47.674;19.320;2023-06-19T06:31:39;24.60;45.40
26579;DHT22;14227;47.674;19.320;2023-06-19T06:34:07;25.00;45.30
26579;DHT22;14227;47.674;19.320;2023-06-19T06:36:32;25.60;43.70
26579;DHT22;14227;47.674;19.320;2023-06-19T06:38:58;26.20;41.90
26579;DHT22;14227;47.674;19.320;2023-06-19T06:41:24;26.80;38.90
26579;DHT22;14227;47.674;19.320;2023-06-19T06:43:49;27.40;37.60
26579;DHT22;14227;47.674;19.320;2023-06-19T06:46:15;28.00;36.20
26579;DHT22;14227;47.674;19.320;2023-06-19T06:48:41;28.40;33.40
26579;DHT22;14227;47.674;19.320;2023-06-19T06:51:07;28.90;33.00
26579;DHT22;14227;47.674;19.320;2023-06-19T06:53:34;29.20;31.60
26579;DHT22;14227;47.674;19.320;2023-06-19T06:56:00;29.70;31.10
26579;DHT22;14227;47.674;19.320;2023-06-19T06:58:26;30.00;29.70
26579;DHT22;14227;47.674;19.320;2023-06-19T07:00:52;30.30;29.30
26579;DHT22;14227;47.674;19.320;2023-06-19T07:03:18;30.60;28.70
26579;DHT22;14227;47.674;19.320;2023-06-19T07:05:44;30.90;28.40
26579;DHT22;14227;47.674;19.320;2023-06-19T07:08:11;31.30;27.50
26579;DHT22;14227;47.674;19.320;2023-06-19T07:10:36;31.50;27.20
26579;DHT22;14227;47.674;19.320;2023-06-19T07:13:02;31.90;26.20
26579;DHT22;14227;47.674;19.320;2023-06-19T07:15:28;32.20;25.50
26579;DHT22;14227;47.674;19.320;2023-06-19T07:17:53;32.50;25.20
26579;DHT22;14227;47.674;19.320;2023-06-19T07:20:19;32.70;23.90
26579;DHT22;14227;47.674;19.320;2023-06-19T07:22:45;33.00;24.20
26579;DHT22;14227;47.674;19.320;2023-06-19T07:25:12;33.10;23.20
26579;DHT22;14227;47.674;19.320;2023-06-19T07:27:38;33.40;23.10
26579;DHT22;14227;47.674;19.320;2023-06-19T07:30:04;33.80;23.00
26579;DHT22;14227;47.674;19.320;2023-06-19T07:32:30;34.10;22.70
26579;DHT22;14227;47.674;19.320;2023-06-19T07:34:55;34.50;21.70
26579;DHT22;14227;47.674;19.320;2023-06-19T07:37:21;34.90;21.60
26579;DHT22;14227;47.674;19.320;2023-06-19T07:39:49;35.20;20.60
26579;DHT22;14227;47.674;19.320;2023-06-19T07:42:16;35.60;20.00
26579;DHT22;14227;47.674;19.320;2023-06-19T07:44:42;35.80;19.40
26579;DHT22;14227;47.674;19.320;2023-06-19T07:47:08;36.00;18.90
26579;DHT22;14227;47.674;19.320;2023-06-19T07:49:35;36.20;19.10
26579;DHT22;14227;47.674;19.320;2023-06-19T07:52:01;36.50;19.20
26579;DHT22;14227;47.674;19.320;2023-06-19T07:54:26;36.70;18.50
26579;DHT22;14227;47.674;19.320;2023-06-19T07:56:52;36.90;18.10
26579;DHT22;14227;47.674;19.320;2023-06-19T07:59:19;37.10;18.20
26579;DHT22;14227;47.674;19.320;2023-06-19T08:01:45;37.20;17.40
26579;DHT22;14227;47.674;19.320;2023-06-19T08:04:11;37.30;17.50
26579;DHT22;14227;47.674;19.320;2023-06-19T08:06:37;37.50;17.30
26579;DHT22;14227;47.674;19.320;2023-06-19T08:09:03;37.70;16.90
26579;DHT22;14227;47.674;19.320;2023-06-19T08:11:29;38.00;17.00
26579;DHT22;14227;47.674;19.320;2023-06-19T08:13:54;38.30;16.40
26579;DHT22;14227;47.674;19.320;2023-06-19T08:16:20;38.40;16.40
26579;DHT22;14227;47.674;19.320;2023-06-19T08:18:46;38.70;15.70
26579;DHT22;14227;47.674;19.320;2023-06-19T08:21:12;38.90;15.60
26579;DHT22;14227;47.674;19.320;2023-06-19T08:23:38;39.20;15.80
26579;DHT22;14227;47.674;19.320;2023-06-19T08:26:05;39.40;15.30
26579;DHT22;14227;47.674;19.320;2023-06-19T08:28:34;39.70;15.10
26579;DHT22;14227;47.674;19.320;2023-06-19T08:31:01;39.90;14.50
26579;DHT22;14227;47.674;19.320;2023-06-19T08:33:27;40.20;14.40
26579;DHT22;14227;47.674;19.320;2023-06-19T08:35:53;40.30;14.40
26579;DHT22;14227;47.674;19.320;2023-06-19T08:38:19;40.60;14.10
26579;DHT22;14227;47.674;19.320;2023-06-19T08:40:45;40.70;13.90
26579;DHT22;14227;47.674;19.320;2023-06-19T08:46:33;41.30;12.80
26579;DHT22;14227;47.674;19.320;2023-06-19T08:49:00;41.60;13.00
26579;DHT22;14227;47.674;19.320;2023-06-19T08:51:29;41.90;12.30
26579;DHT22;14227;47.674;19.320;2023-06-19T08:54:07;42.20;12.40
26579;DHT22;14227;47.674;19.320;2023-06-19T08:56:36;42.40;12.40
26579;DHT22;14227;47.674;19.320;2023-06-19T08:59:16;42.50;12.00
26579;DHT22;14227;47.674;19.320;2023-06-19T09:01:53;42.70;11.70
26579;DHT22;14227;47.674;19.320;2023-06-19T09:04:21;42.70;11.70
26579;DHT22;14227;47.674;19.320;2023-06-19T09:06:52;42.80;11.20
26579;DHT22;14227;47.674;19.320;2023-06-19T09:09:19;43.00;10.90
26579;DHT22;14227;47.674;19.320;2023-06-19T09:12:15;43.30;10.50
26579;DHT22;14227;47.674;19.320;2023-06-19T09:14:44;43.80;10.80
26579;DHT22;14227;47.674;19.320;2023-06-19T09:17:12;44.20;9.90
26579;DHT22;14227;47.674;19.320;2023-06-19T09:19:46;44.70;8.70
26579;DHT22;14227;47.674;19.320;2023-06-19T09:22:12;45.10;8.00
26579;DHT22;14227;47.674;19.320;2023-06-19T09:24:40;45.30;7.10
26579;DHT22;14227;47.674;19.320;2023-06-19T09:27:13;45.50;7.60
26579;DHT22;14227;47.674;19.320;2023-06-19T09:29:40;45.70;8.20
26579;DHT22;14227;47.674;19.320;2023-06-19T09:34:41;45.70;6.70
26579;DHT22;14227;47.674;19.320;2023-06-19T09:37:07;45.70;6.40
26579;DHT22;14227;47.674;19.320;2023-06-19T09:39:35;45.80;7.00
26579;DHT22;14227;47.674;19.320;2023-06-19T09:42:02;45.90;7.00
26579;DHT22;14227;47.674;19.320;2023-06-19T09:44:31;46.00;6.30
26579;DHT22;14227;47.674;19.320;2023-06-19T09:47:02;46.40;6.40
26579;DHT22;14227;47.674;19.320;2023-06-19T09:49:31;46.50;5.70
26579;DHT22;14227;47.674;19.320;2023-06-19T09:51:57;46.80;5.90
26579;DHT22;14227;47.674;19.320;2023-06-19T09:54:24;47.10;5.60
26579;DHT22;14227;47.674;19.320;2023-06-19T09:56:52;47.40;5.30
26579;DHT22;14227;47.674;19.320;2023-06-19T09:59:22;47.70;5.20
26579;DHT22;14227;47.674;19.320;2023-06-19T10:01:48;47.90;4.40
26579;DHT22;14227;47.674;19.320;2023-06-19T10:04:14;48.20;4.50
26579;DHT22;14227;47.674;19.320;2023-06-19T10:06:46;48.60;3.60
26579;DHT22;14227;47.674;19.320;2023-06-19T10:09:13;48.80;3.40
26579;DHT22;14227;47.674;19.320;2023-06-19T10:11:49;48.90;3.60
26579;DHT22;14227;47.674;19.320;2023-06-19T10:14:22;48.90;3.40
26579;DHT22;14227;47.674;19.320;2023-06-19T10:16:48;48.90;3.20
26579;DHT22;14227;47.674;19.320;2023-06-19T10:19:15;49.00;2.50
26579;DHT22;14227;47.674;19.320;2023-06-19T10:21:47;49.00;2.60
26579;DHT22;14227;47.674;19.320;2023-06-19T10:24:16;49.10;3.00
26579;DHT22;14227;47.674;19.320;2023-06-19T10:26:54;49.40;2.80
26579;DHT22;14227;47.674;19.320;2023-06-19T10:29:20;49.70;2.60
26579;DHT22;14227;47.674;19.320;2023-06-19T10:31:46;50.10;3.00
26579;DHT22;14227;47.674;19.320;2023-06-19T10:34:12;50.30;2.90
26579;DHT22;14227;47.674;19.320;2023-06-19T10:36:37;50.70;2.60
26579;DHT22;14227;47.674;19.320;2023-06-19T10:39:03;50.80;2.50
26579;DHT22;14227;47.674;19.320;2023-06-19T10:41:30;51.10;2.40
26579;DHT22;14227;47.674;19.320;2023-06-19T10:44:06;51.20;2.30
26579;DHT22;14227;47.674;19.320;2023-06-19T10:46:38;51.30;2.10
26579;DHT22;14227;47.674;19.320;2023-06-19T10:49:06;51.50;2.00
26579;DHT22;14227;47.674;19.320;2023-06-19T10:51:37;51.80;2.00
26579;DHT22;14227;47.674;19.320;2023-06-19T10:54:04;51.70;1.60
26579;DHT22;14227;47.674;19.320;2023-06-19T10:56:29;51.10;1.80
26579;DHT22;14227;47.674;19.320;2023-06-19T10:58:59;50.10;2.30
26579;DHT22;14227;47.674;19.320;2023-06-19T11:01:32;49.20;3.50
26579;DHT22;14227;47.674;19.320;2023-06-19T11:03:58;48.50;3.50
26579;DHT22;14227;47.674;19.320;2023-06-19T11:06:24;47.90;4.40
26579;DHT22;14227;47.674;19.320;2023-06-19T11:08:53;47.20;4.90
26579;DHT22;14227;47.674;19.320;2023-06-19T11:11:19;46.50;5.30
26579;DHT22;14227;47.674;19.320;2023-06-19T11:13:45;46.10;5.70
26579;DHT22;14227;47.674;19.320;2023-06-19T11:16:13;45.90;5.70
26579;DHT22;14227;47.674;19.320;2023-06-19T11:18:39;45.60;5.90
26579;DHT22;14227;47.674;19.320;2023-06-19T11:21:05;45.30;6.30
26579;DHT22;14227;47.674;19.320;2023-06-19T11:23:30;45.60;5.90
26579;DHT22;14227;47.674;19.320;2023-06-19T11:26:03;46.00;5.70
26579;DHT22;14227;47.674;19.320;2023-06-19T11:28:29;46.40;5.60
26579;DHT22;14227;47.674;19.320;2023-06-19T11:31:02;46.40;5.80
26579;DHT22;14227;47.674;19.320;2023-06-19T11:33:29;46.10;5.90
26579;DHT22;14227;47.674;19.320;2023-06-19T11:36:00;46.20;5.90
26579;DHT22;14227;47.674;19.320;2023-06-19T11:38:26;46.70;5.80
26579;DHT22;14227;47.674;19.320;2023-06-19T11:40:54;47.10;5.60
26579;DHT22;14227;47.674;19.320;2023-06-19T11:43:30;47.10;5.40
26579;DHT22;14227;47.674;19.320;2023-06-19T11:46:03;47.00;5.30
26579;DHT22;14227;47.674;19.320;2023-06-19T11:48:29;47.10;5.20
26579;DHT22;14227;47.674;19.320;2023-06-19T11:50:55;47.60;5.10
26579;DHT22;14227;47.674;19.320;2023-06-19T11:53:22;48.20;5.20
26579;DHT22;14227;47.674;19.320;2023-06-19T11:55:47;48.60;5.10
26579;DHT22;14227;47.674;19.320;2023-06-19T11:58:13;48.60;4.20
26579;DHT22;14227;47.674;19.320;2023-06-19T12:00:41;48.70;4.40
26579;DHT22;14227;47.674;19.320;2023-06-19T12:03:07;48.40;4.50
26579;DHT22;14227;47.674;19.320;2023-06-19T12:05:33;48.00;4.50
26579;DHT22;14227;47.674;19.320;2023-06-19T12:07:59;47.30;4.60
26579;DHT22;14227;47.674;19.320;2023-06-19T12:10:28;46.70;4.60
26579;DHT22;14227;47.674;19.320;2023-06-19T12:12:54;47.00;5.40
26579;DHT22;14227;47.674;19.320;2023-06-19T12:15:19;47.70;5.00
26579;DHT22;14227;47.674;19.320;2023-06-19T12:17:46;48.60;4.20
26579;DHT22;14227;47.674;19.320;2023-06-19T12:20:12;48.70;4.00
26579;DHT22;14227;47.674;19.320;2023-06-19T12:22:39;48.00;4.30
26579;DHT22;14227;47.674;19.320;2023-06-19T12:25:05;47.30;4.90
26579;DHT22;14227;47.674;19.320;2023-06-19T12:27:31;46.90;5.10
26579;DHT22;14227;47.674;19.320;2023-06-19T12:29:56;46.50;5.50
26579;DHT22;14227;47.674;19.320;2023-06-19T12:32:22;46.50;5.00
26579;DHT22;14227;47.674;19.320;2023-06-19T12:34:48;47.30;4.90
26579;DHT22;14227;47.674;19.320;2023-06-19T12:37:15;48.10;5.00
26579;DHT22;14227;47.674;19.320;2023-06-19T12:39:43;48.30;4.10
26579;DHT22;14227;47.674;19.320;2023-06-19T12:42:09;47.70;4.70
26579;DHT22;14227;47.674;19.320;2023-06-19T12:44:40;46.90;4.80
26579;DHT22;14227;47.674;19.320;2023-06-19T12:47:06;46.20;5.40
26579;DHT22;14227;47.674;19.320;2023-06-19T12:49:32;46.70;5.40
26579;DHT22;14227;47.674;19.320;2023-06-19T12:51:58;47.40;5.00
26579;DHT22;14227;47.674;19.320;2023-06-19T12:54:25;48.20;4.60
26579;DHT22;14227;47.674;19.320;2023-06-19T12:56:50;48.20;3.90
26579;DHT22;14227;47.674;19.320;2023-06-19T12:59:16;48.50;3.90
26579;DHT22;14227;47.674;19.320;2023-06-19T13:01:42;48.90;3.60
26579;DHT22;14227;47.674;19.320;2023-06-19T13:04:09;48.90;3.90
26579;DHT22;14227;47.674;19.320;2023-06-19T13:06:38;48.50;3.90
26579;DHT22;14227;47.674;19.320;2023-06-19T13:09:05;48.10;4.50
26579;DHT22;14227;47.674;19.320;2023-06-19T13:11:31;47.40;5.00
26579;DHT22;14227;47.674;19.320;2023-06-19T13:14:00;46.90;4.80
26579;DHT22;14227;47.674;19.320;2023-06-19T13:16:25;46.70;4.60
26579;DHT22;14227;47.674;19.320;2023-06-19T13:18:52;46.90;4.90
26579;DHT22;14227;47.674;19.320;2023-06-19T13:21:18;46.50;5.40
26579;DHT22;14227;47.674;19.320;2023-06-19T13:23:44;46.00;5.50
26579;DHT22;14227;47.674;19.320;2023-06-19T13:26:10;45.50;6.30
26579;DHT22;14227;47.674;19.320;2023-06-19T13:28:36;44.90;7.90
26579;DHT22;14227;47.674;19.320;2023-06-19T13:31:03;44.30;8.70
26579;DHT22;14227;47.674;19.320;2023-06-19T13:33:28;44.30;8.50
26579;DHT22;14227;47.674;19.320;2023-06-19T13:35:54;44.80;8.00
26579;DHT22;14227;47.674;19.320;2023-06-19T13:38:20;45.50;6.50
26579;DHT22;14227;47.674;19.320;2023-06-19T13:40:46;46.40;6.40
26579;DHT22;14227;47.674;19.320;2023-06-19T13:43:12;46.80;5.40
26579;DHT22;14227;47.674;19.320;2023-06-19T13:45:38;46.40;6.10
26579;DHT22;14227;47.674;19.320;2023-06-19T13:48:06;45.80;6.40
26579;DHT22;14227;47.674;19.320;2023-06-19T13:50:32;45.90;7.00
26579;DHT22;14227;47.674;19.320;2023-06-19T13:52:59;46.50;6.80
26579;DHT22;14227;47.674;19.320;2023-06-19T13:55:25;47.20;5.00
26579;DHT22;14227;47.674;19.320;2023-06-19T13:57:50;47.90;5.30
26579;DHT22;14227;47.674;19.320;2023-06-19T14:00:18;48.40;3.80
26579;DHT22;14227;47.674;19.320;2023-06-19T14:02:44;48.90;3.90
26579;DHT22;14227;47.674;19.320;2023-06-19T14:05:10;49.50;3.50
26579;DHT22;14227;47.674;19.320;2023-06-19T14:07:36;49.90;3.50
26579;DHT22;14227;47.674;19.320;2023-06-19T14:10:03;50.40;3.20
26579;DHT22;14227;47.674;19.320;2023-06-19T14:12:29;50.80;2.80
26579;DHT22;14227;47.674;19.320;2023-06-19T14:14:56;51.00;2.50
26579;DHT22;14227;47.674;19.320;2023-06-19T14:17:22;51.10;2.40
26579;DHT22;14227;47.674;19.320;2023-06-19T14:19:48;51.10;1.80
26579;DHT22;14227;47.674;19.320;2023-06-19T14:22:14;51.20;2.20
26579;DHT22;14227;47.674;19.320;2023-06-19T14:24:40;51.20;2.30
26579;DHT22;14227;47.674;19.320;2023-06-19T14:27:06;51.20;2.10
26579;DHT22;14227;47.674;19.320;2023-06-19T14:29:31;51.20;2.10
26579;DHT22;14227;47.674;19.320;2023-06-19T14:31:57;51.40;2.00
26579;DHT22;14227;47.674;19.320;2023-06-19T14:34:23;51.10;2.20
26579;DHT22;14227;47.674;19.320;2023-06-19T14:36:48;50.50;3.00
26579;DHT22;14227;47.674;19.320;2023-06-19T14:39:14;50.00;3.00
26579;DHT22;14227;47.674;19.320;2023-06-19T14:41:40;49.80;3.40
26579;DHT22;14227;47.674;19.320;2023-06-19T14:44:06;49.80;3.40
26579;DHT22;14227;47.674;19.320;2023-06-19T14:46:32;49.90;3.10
26579;DHT22;14227;47.674;19.320;2023-06-19T14:48:58;49.40;3.00
26579;DHT22;14227;47.674;19.320;2023-06-19T14:51:26;49.00;3.80
26579;DHT22;14227;47.674;19.320;2023-06-19T14:53:52;49.00;3.80
26579;DHT22;14227;47.674;19.320;2023-06-19T14:56:17;49.00;3.60
26579;DHT22;14227;47.674;19.320;2023-06-19T14:58:43;49.20;3.50
26579;DHT22;14227;47.674;19.320;2023-06-19T15:01:09;49.40;3.90
26579;DHT22;14227;47.674;19.320;2023-06-19T15:03:35;49.60;3.40
26579;DHT22;14227;47.674;19.320;2023-06-19T15:06:01;49.60;3.40
26579;DHT22;14227;47.674;19.320;2023-06-19T15:08:26;49.70;3.40
26579;DHT22;14227;47.674;19.320;2023-06-19T15:10:52;49.70;3.40
26579;DHT22;14227;47.674;19.320;2023-06-19T15:13:18;49.70;3.50
26579;DHT22;14227;47.674;19.320;2023-06-19T15:15:44;49.80;3.40
26579;DHT22;14227;47.674;19.320;2023-06-19T15:18:11;49.70;3.20
26579;DHT22;14227;47.674;19.320;2023-06-19T15:20:36;49.50;3.30
26579;DHT22;14227;47.674;19.320;2023-06-19T15:23:07;49.30;3.20
26579;DHT22;14227;47.674;19.320;2023-06-19T15:25:32;49.10;3.40
26579;DHT22;14227;47.674;19.320;2023-06-19T15:27:58;48.90;3.40
26579;DHT22;14227;47.674;19.320;2023-06-19T15:30:24;48.60;3.60
26579;DHT22;14227;47.674;19.320;2023-06-19T15:32:49;48.30;3.50
26579;DHT22;14227;47.674;19.320;2023-06-19T15:35:15;48.00;3.80
26579;DHT22;14227;47.674;19.320;2023-06-19T15:37:41;48.00;4.50
26579;DHT22;14227;47.674;19.320;2023-06-19T15:40:07;47.90;4.30
26579;DHT22;14227;47.674;19.320;2023-06-19T15:42:33;48.00;4.40
26579;DHT22;14227;47.674;19.320;2023-06-19T15:44:59;47.90;4.60
26579;DHT22;14227;47.674;19.320;2023-06-19T15:47:25;47.70;4.30
26579;DHT22;14227;47.674;19.320;2023-06-19T15:49:50;47.60;4.70
26579;DHT22;14227;47.674;19.320;2023-06-19T15:52:16;47.50;5.00
26579;DHT22;14227;47.674;19.320;2023-06-19T15:54:42;47.40;5.00
26579;DHT22;14227;47.674;19.320;2023-06-19T15:57:07;47.40;5.00
26579;DHT22;14227;47.674;19.320;2023-06-19T15:59:33;47.30;5.00
26579;DHT22;14227;47.674;19.320;2023-06-19T16:01:59;47.20;4.90
26579;DHT22;14227;47.674;19.320;2023-06-19T16:04:24;46.90;4.80
26579;DHT22;14227;47.674;19.320;2023-06-19T16:06:50;46.30;5.20
26579;DHT22;14227;47.674;19.320;2023-06-19T16:09:16;45.60;5.60
26579;DHT22;14227;47.674;19.320;2023-06-19T16:11:41;44.70;6.10
26579;DHT22;14227;47.674;19.320;2023-06-19T16:14:07;44.00;6.70
26579;DHT22;14227;47.674;19.320;2023-06-19T16:16:33;43.40;7.50
26579;DHT22;14227;47.674;19.320;2023-06-19T16:18:58;43.10;7.80
26579;DHT22;14227;47.674;19.320;2023-06-19T16:21:24;42.80;8.40
26579;DHT22;14227;47.674;19.320;2023-06-19T16:23:53;42.40;8.50
26579;DHT22;14227;47.674;19.320;2023-06-19T16:26:18;41.70;9.60
26579;DHT22;14227;47.674;19.320;2023-06-19T16:28:44;40.80;10.30
26579;DHT22;14227;47.674;19.320;2023-06-19T16:31:10;39.90;11.20
26579;DHT22;14227;47.674;19.320;2023-06-19T16:33:36;39.10;11.90
26579;DHT22;14227;47.674;19.320;2023-06-19T16:36:04;38.40;13.00
26579;DHT22;14227;47.674;19.320;2023-06-19T16:38:30;37.80;13.50
26579;DHT22;14227;47.674;19.320;2023-06-19T16:40:56;37.30;14.70
26579;DHT22;14227;47.674;19.320;2023-06-19T16:43:22;36.80;15.10
26579;DHT22;14227;47.674;19.320;2023-06-19T16:45:47;36.40;14.90
26579;DHT22;14227;47.674;19.320;2023-06-19T16:48:13;36.00;15.30
26579;DHT22;14227;47.674;19.320;2023-06-19T16:50:39;35.60;16.20
26579;DHT22;14227;47.674;19.320;2023-06-19T16:53:06;35.40;17.20
26579;DHT22;14227;47.674;19.320;2023-06-19T16:55:32;35.10;17.30
26579;DHT22;14227;47.674;19.320;2023-06-19T16:57:58;35.00;17.60
26579;DHT22;14227;47.674;19.320;2023-06-19T17:00:24;34.80;17.80
26579;DHT22;14227;47.674;19.320;2023-06-19T17:02:49;34.60;18.10
26579;DHT22;14227;47.674;19.320;2023-06-19T17:05:20;34.60;18.10
26579;DHT22;14227;47.674;19.320;2023-06-19T17:07:46;34.50;19.30
26579;DHT22;14227;47.674;19.320;2023-06-19T17:10:12;34.50;18.60
26579;DHT22;14227;47.674;19.320;2023-06-19T17:12:43;34.40;18.40
26579;DHT22;14227;47.674;19.320;2023-06-19T17:15:10;34.40;19.10
26579;DHT22;14227;47.674;19.320;2023-06-19T17:17:35;34.10;19.90
26579;DHT22;14227;47.674;19.320;2023-06-19T17:20:02;33.90;19.70
26579;DHT22;14227;47.674;19.320;2023-06-19T17:22:28;33.50;21.20
26579;DHT22;14227;47.674;19.320;2023-06-19T17:24:54;33.20;21.00
26579;DHT22;14227;47.674;19.320;2023-06-19T17:27:20;32.80;20.60
26579;DHT22;14227;47.674;19.320;2023-06-19T17:29:45;32.60;21.60
26579;DHT22;14227;47.674;19.320;2023-06-19T17:32:11;32.30;24.00
26579;DHT22;14227;47.674;19.320;2023-06-19T17:34:37;32.00;25.50
26579;DHT22;14227;47.674;19.320;2023-06-19T17:37:03;31.80;26.10
26579;DHT22;14227;47.674;19.320;2023-06-19T17:39:28;31.50;25.90
26579;DHT22;14227;47.674;19.320;2023-06-19T17:41:54;31.30;27.10
26579;DHT22;14227;47.674;19.320;2023-06-19T17:44:20;31.00;27.80
26579;DHT22;14227;47.674;19.320;2023-06-19T17:46:52;30.70;29.30
26579;DHT22;14227;47.674;19.320;2023-06-19T17:49:18;30.50;29.20
26579;DHT22;14227;47.674;19.320;2023-06-19T17:51:46;30.20;30.20
26579;DHT22;14227;47.674;19.320;2023-06-19T17:54:12;29.90;30.60
26579;DHT22;14227;47.674;19.320;2023-06-19T17:56:38;29.60;30.90
26579;DHT22;14227;47.674;19.320;2023-06-19T17:59:03;29.30;32.00
26579;DHT22;14227;47.674;19.320;2023-06-19T18:01:29;29.10;33.20
26579;DHT22;14227;47.674;19.320;2023-06-19T18:03:55;28.80;33.30
26579;DHT22;14227;47.674;19.320;2023-06-19T18:06:21;28.50;34.30
26579;DHT22;14227;47.674;19.320;2023-06-19T18:08:47;28.20;35.10
26579;DHT22;14227;47.674;19.320;2023-06-19T18:11:13;28.00;35.90
26579;DHT22;14227;47.674;19.320;2023-06-19T18:13:39;27.70;36.50
26579;DHT22;14227;47.674;19.320;2023-06-19T18:16:05;27.50;37.30
26579;DHT22;14227;47.674;19.320;2023-06-19T18:18:30;27.30;38.80
26579;DHT22;14227;47.674;19.320;2023-06-19T18:20:56;27.00;39.00
26579;DHT22;14227;47.674;19.320;2023-06-19T18:23:22;26.80;41.30
26579;DHT22;14227;47.674;19.320;2023-06-19T18:25:49;26.50;41.70
26579;DHT22;14227;47.674;19.320;2023-06-19T18:28:14;26.30;42.40
26579;DHT22;14227;47.674;19.320;2023-06-19T18:30:40;26.10;41.80
26579;DHT22;14227;47.674;19.320;2023-06-19T18:33:06;25.90;41.30
26579;DHT22;14227;47.674;19.320;2023-06-19T18:35:32;25.70;41.40
26579;DHT22;14227;47.674;19.320;2023-06-19T18:37:58;25.50;41.80
26579;DHT22;14227;47.674;19.320;2023-06-19T18:40:24;25.30;43.50
26579;DHT22;14227;47.674;19.320;2023-06-19T18:42:50;25.10;44.60
26579;DHT22;14227;47.674;19.320;2023-06-19T18:45:15;24.90;46.00
26579;DHT22;14227;47.674;19.320;2023-06-19T18:47:41;24.70;46.90
26579;DHT22;14227;47.674;19.320;2023-06-19T18:50:07;24.40;47.90
26579;DHT22;14227;47.674;19.320;2023-06-19T18:52:34;24.20;49.00
26579;DHT22;14227;47.674;19.320;2023-06-19T18:55:01;24.00;49.60
26579;DHT22;14227;47.674;19.320;2023-06-19T18:57:26;23.80;50.80
26579;DHT22;14227;47.674;19.320;2023-06-19T18:59:57;23.60;51.40
26579;DHT22;14227;47.674;19.320;2023-06-19T19:02:26;23.40;51.70
26579;DHT22;14227;47.674;19.320;2023-06-19T19:04:51;23.10;52.60
26579;DHT22;14227;47.674;19.320;2023-06-19T19:07:17;22.90;52.90
26579;DHT22;14227;47.674;19.320;2023-06-19T19:09:45;22.70;53.70
26579;DHT22;14227;47.674;19.320;2023-06-19T19:12:11;22.60;56.20
26579;DHT22;14227;47.674;19.320;2023-06-19T19:14:37;22.40;57.10
26579;DHT22;14227;47.674;19.320;2023-06-19T19:17:03;22.20;57.10
26579;DHT22;14227;47.674;19.320;2023-06-19T19:19:29;22.10;57.00
26579;DHT22;14227;47.674;19.320;2023-06-19T19:21:54;21.90;56.90
26579;DHT22;14227;47.674;19.320;2023-06-19T19:24:20;21.70;56.70
26579;DHT22;14227;47.674;19.320;2023-06-19T19:26:46;21.60;57.80
26579;DHT22;14227;47.674;19.320;2023-06-19T19:29:12;21.40;58.20
26579;DHT22;14227;47.674;19.320;2023-06-19T19:31:37;21.30;59.20
26579;DHT22;14227;47.674;19.320;2023-06-19T19:34:04;21.20;60.00
26579;DHT22;14227;47.674;19.320;2023-06-19T19:36:30;21.10;59.30